This is the latest recevied weather packets stored in our database for station/object W7PLC. If no packets are shown the sender has not sent any weather packets the latest 1 day(s).
| Time | Temp. | Humidity | Pressure | Rain* | Wind** | Luminosity | Snow |
|---|---|---|---|---|---|---|---|
| 1778098597 | 14.44° C | 78% | 1019.2 hPa | 0 mm | - | 84 W/m² | - |
| 1778097990 | 14.44° C | 79% | 1019.1 hPa | 0 mm | - | 84 W/m² | - |
| 1778094958 | 14.44° C | 78% | 1018.9 hPa | 0 mm | - | 82 W/m² | - |
| 1778093442 | 13.89° C | 81% | 1018.8 hPa | 0 mm | - | 64 W/m² | - |
| 1778087684 | 13.89° C | 78% | 1018.4 hPa | 0 mm | - | 99 W/m² | - |
| 1778087077 | 13.89° C | 79% | 1018.6 hPa | 0 mm | - | 107 W/m² | - |
| 1778085861 | 13.33° C | 80% | 1018.6 hPa | 0 mm | - | 101 W/m² | - |
| 1778085554 | 13.33° C | 81% | 1018.4 hPa | 0 mm | - | 105 W/m² | - |
| 1778084036 | 13.89° C | 80% | 1018.2 hPa | 0 mm | - | 71 W/m² | - |
| 1778082825 | 12.78° C | 83% | 1018 hPa | 0 mm | - | 86 W/m² | - |
| 1778081400 | 12.78° C | 85% | 1018.1 hPa | 0 mm | - | 75 W/m² | - |
| 1778080795 | 12.22° C | 88% | 1018 hPa | 0 mm | - | 58 W/m² | - |
| 1778079885 | 12.22° C | 89% | 1018.4 hPa | 0 mm | - | 37 W/m² | - |
| 1778078977 | 12.22° C | 89% | 1018.2 hPa | 0 mm | - | 30 W/m² | - |
| 1778078673 | 11.67° C | 90% | 1018.2 hPa | 0 mm | - | 38 W/m² | - |
| 1778078068 | 11.67° C | 91% | 1018 hPa | 0 mm | - | 36 W/m² | - |
| 1778077464 | 11.67° C | 91% | 1017.7 hPa | 0 mm | - | 23 W/m² | - |
| 1778076558 | 11.67° C | 92% | 1017.6 hPa | 0 mm | - | 26 W/m² | - |
| 1778076254 | 11.11° C | 92% | 1017.6 hPa | 0 mm | - | 19 W/m² | - |
| 1778073222 | 11.11° C | 94% | 1017.6 hPa | 0 mm | - | 1 W/m² | - |
| 1778072920 | 11.11° C | 94% | 1017.4 hPa | 0 mm | - | 0 W/m² | - |
| 1778072616 | 11.11° C | 95% | 1017.7 hPa | 0 mm | - | 0 W/m² | - |
| 1778072314 | 11.11° C | 95% | 1017.7 hPa | 0 mm | - | 0 W/m² | - |
| 1778067777 | 11.67° C | 94% | 1017.1 hPa | 0 mm | - | 0 W/m² | - |
| 1778067475 | 11.67° C | 94% | 1016.9 hPa | 0 mm | - | 0 W/m² | - |
* Rain latest hour (hover to see other rain measurements)
** Current wind speed in m/s (hover to see current wind gust speed)